DIRECCIÓN GENERAL DE AERONÁUTICA CIVIL
DIRECCIÓN METEOROLÓGICA DE CHILE
INFORMACIÓN METAR Y TAF

FIR SANTIAGO

Estación: SCSE
METAR SCSE 240700Z 11003KT CAVOK 11/08 Q1014=

TAF SCSE 240430Z 2406/2506 VRB02KT CAVOK TX18/2418Z TN10/2410Z TEMPO 2408/2412 BKN020 BECMG 2414/2416 28009KT BECMG 2502/2504 VRB02KT=

Estación: SCER
NIL=

NIL=

Estación: SCRD
METAR SCRD 240000Z 18011KT 9999 FEW020 BKN150 13/09 Q1016=

TAF SCRD 231030Z 2312/2324 VRB02KT 9999 BKN010 TX19/2318Z TN10/2312Z TEMPO 2312/2314 5000 -DZ BECMG 2315/2317 33010KT BECMG 2318/2320 19010KT SCT020=

Estación: SCVM
METAR SCVM 240700Z 00000KT 9999 SCT030 OVC200 12/11 Q1016=

TAF SCVM 240430Z 2406/2506 00000KT CAVOK TX19/2419Z TN11/2410Z TEMPO 2408/2412 BKN025 BECMG 2414/2416 34005KT BECMG 2418/2420 27012KT BECMG 2502/2504 VRB02KT=

Estación: SCTB
METAR SCTB 232300Z 23006KT 9999 SCT130 OVC200 19/10 Q1015=

TAF SCTB 231030Z 2312/2324 VRB02KT 7000 BKN180 TX26/2318Z TN12/2312Z BECMG 2316/2318 21008KT SCT180 TEMPO 2318/2322 SCT050=

Estación: SCEL
METAR SCEL 240700Z 11005KT 9999 FEW030 BKN180 13/08 Q1016 NOSIG=

TAF SCEL 240430Z 2406/2506 15006KT 9999 BKN180 TX22/2419Z TN10/2410Z BECMG 2409/2411 VRB02KT TEMPO 2409/2412 BKN020 BECMG 2414/2416 19013KT FEW060 SCT180 BECMG 2420/2422 CAVOK BECMG 2502/2504 15005KT=

Estación: SCSN
METAR SCSN 240700Z AUTO VRB01KT //// R/////// // NCD 11/10 Q1016=

TAF SCSN 231030Z 2312/2324 VRB02KT 9999 OVC015 TX18/2318Z TN11/2312Z BECMG 2316/2318 25010KT SCT020=

Estación: SCRG
METAR SCRG 222000Z NIL=

TAF SCRG 211033Z 2112/2124 17005KT CAVOK TX26/2118Z TN13/2112Z BECMG 2115/2117 19012KT=

Estación: SCIC
METAR SCIC 240700Z AUTO 21007KT 170V230 9999 NCD 14/08 Q1016=

TAF SCIC 231030Z 2312/2324 VRB02KT CAVOK TX24/2318Z TN12/2312Z BECMG 2315/2317 20010KT BECMG 2318/2320 BKN050=

Estación: SCCH
METAR SCCH 240000Z 22002KT 9999 BKN030 15/08 Q1017=

TAF SCCH 231030Z 2312/2324 VRB02KT CAVOK TX21/2319Z TN12/2312Z BECMG 2316/2318 21008KT BKN030 BECMG 2318/2320 7000 -SHRA=

Estación: SCIE
METAR SCIE 240700Z 00000KT CAVOK 09/08 Q1019=

TAF SCIE 240430Z 2406/2506 VRB02KT 9999 SCT035 TX19/2418Z TN08/2410Z BECMG 2412/2414 24013KT BECMG 2416/2418 CAVOK BECMG 2502/2504 VRB02KT=

Estación: SCGE
METAR SCGE 231500Z 34010KT 2000 -DZ BKN007 OVC017 14/14 Q1015=

TAF AMD SCGE 231439Z 2315/2324 36010KT 2500 DZ BKN007 OVC012 TX18/ 2319Z TN13/2324Z BECMG 2321/2323 33010KT 9999 FEW015 BKN020=


Volver